Terminal Aerodrome Forecast
Issued by NWS Duluth, MN

Home | Current Version | Previous Version | Text Only | Print | Product List | Glossary On
Versions: 1 2 3 4 5 6 7 8 9 10 11 12 13 14 15 16 17
399
FTUS43 KDLH 132042 AAA
TAFDLH
TAF AMD
KDLH 132042Z 1321/1418 20006KT P6SM BKN080
     FM140500 22009KT P6SM SCT020 SCT070 WS018/24030KT
     FM141100 25008KT P6SM SCT015=

USA.gov is the U.S. government's official web portal to all federal, state and local government web resources and services.